sensor_id;sensor_type;location;lat;lon;timestamp;pressure;altitude;pressure_sealevel;temperature
19282;BMP180;9774;52.034;5.342;2022-11-20T00:00:20;101157.00;;;5.30
19282;BMP180;9774;52.034;5.342;2022-11-20T00:02:47;101152.00;;;5.30
19282;BMP180;9774;52.034;5.342;2022-11-20T00:05:16;101154.00;;;5.30
19282;BMP180;9774;52.034;5.342;2022-11-20T00:07:44;101140.00;;;5.30
19282;BMP180;9774;52.034;5.342;2022-11-20T00:10:11;101143.00;;;5.20
19282;BMP180;9774;52.034;5.342;2022-11-20T00:12:38;101144.00;;;5.20
19282;BMP180;9774;52.034;5.342;2022-11-20T00:15:07;101142.00;;;5.20
19282;BMP180;9774;52.034;5.342;2022-11-20T00:17:34;101143.00;;;5.20
19282;BMP180;9774;52.034;5.342;2022-11-20T00:20:01;101147.00;;;5.20
19282;BMP180;9774;52.034;5.342;2022-11-20T00:22:30;101151.00;;;5.10
19282;BMP180;9774;52.034;5.342;2022-11-20T00:24:57;101150.00;;;5.10
19282;BMP180;9774;52.034;5.342;2022-11-20T00:27:24;101143.00;;;5.10
19282;BMP180;9774;52.034;5.342;2022-11-20T00:29:52;101142.00;;;5.10
19282;BMP180;9774;52.034;5.342;2022-11-20T00:32:19;101136.00;;;5.10
19282;BMP180;9774;52.034;5.342;2022-11-20T00:34:46;101129.00;;;5.10
19282;BMP180;9774;52.034;5.342;2022-11-20T00:37:13;101127.00;;;5.10
19282;BMP180;9774;52.034;5.342;2022-11-20T00:39:42;101127.00;;;5.00
19282;BMP180;9774;52.034;5.342;2022-11-20T00:42:10;101121.00;;;5.00
19282;BMP180;9774;52.034;5.342;2022-11-20T00:44:37;101118.00;;;5.00
19282;BMP180;9774;52.034;5.342;2022-11-20T00:47:05;101125.00;;;5.00
19282;BMP180;9774;52.034;5.342;2022-11-20T00:49:33;101114.00;;;5.00
19282;BMP180;9774;52.034;5.342;2022-11-20T00:52:00;101116.00;;;5.00
19282;BMP180;9774;52.034;5.342;2022-11-20T00:54:27;101118.00;;;5.00
19282;BMP180;9774;52.034;5.342;2022-11-20T00:56:56;101118.00;;;4.90
19282;BMP180;9774;52.034;5.342;2022-11-20T00:59:23;101110.00;;;4.90
19282;BMP180;9774;52.034;5.342;2022-11-20T01:01:50;101106.00;;;4.90
19282;BMP180;9774;52.034;5.342;2022-11-20T01:04:18;101110.00;;;4.90
19282;BMP180;9774;52.034;5.342;2022-11-20T01:06:45;101111.00;;;4.90
19282;BMP180;9774;52.034;5.342;2022-11-20T01:09:13;101109.00;;;4.90
19282;BMP180;9774;52.034;5.342;2022-11-20T01:11:43;101109.00;;;4.90
19282;BMP180;9774;52.034;5.342;2022-11-20T01:14:14;101119.00;;;4.80
19282;BMP180;9774;52.034;5.342;2022-11-20T01:16:44;101119.00;;;4.80
19282;BMP180;9774;52.034;5.342;2022-11-20T01:19:13;101122.00;;;4.80
19282;BMP180;9774;52.034;5.342;2022-11-20T01:21:45;101128.00;;;4.80
19282;BMP180;9774;52.034;5.342;2022-11-20T01:24:15;101120.00;;;4.80
19282;BMP180;9774;52.034;5.342;2022-11-20T01:26:43;101113.00;;;4.80
19282;BMP180;9774;52.034;5.342;2022-11-20T01:29:14;101113.00;;;4.80
19282;BMP180;9774;52.034;5.342;2022-11-20T01:31:42;101112.00;;;4.80
19282;BMP180;9774;52.034;5.342;2022-11-20T01:34:12;101111.00;;;4.80
19282;BMP180;9774;52.034;5.342;2022-11-20T01:36:39;101116.00;;;4.80
19282;BMP180;9774;52.034;5.342;2022-11-20T01:39:10;101116.00;;;4.80
19282;BMP180;9774;52.034;5.342;2022-11-20T01:41:39;101107.00;;;4.70
19282;BMP180;9774;52.034;5.342;2022-11-20T01:44:50;101105.00;;;4.70
19282;BMP180;9774;52.034;5.342;2022-11-20T01:47:27;101100.00;;;4.70
19282;BMP180;9774;52.034;5.342;2022-11-20T01:49:58;101101.00;;;4.70
19282;BMP180;9774;52.034;5.342;2022-11-20T01:52:30;101106.00;;;4.70
19282;BMP180;9774;52.034;5.342;2022-11-20T01:55:04;101109.00;;;4.70
19282;BMP180;9774;52.034;5.342;2022-11-20T01:57:33;101113.00;;;4.70
19282;BMP180;9774;52.034;5.342;2022-11-20T02:00:07;101111.00;;;4.60
19282;BMP180;9774;52.034;5.342;2022-11-20T02:02:36;101111.00;;;4.70
19282;BMP180;9774;52.034;5.342;2022-11-20T02:05:08;101114.00;;;4.70
19282;BMP180;9774;52.034;5.342;2022-11-20T02:07:38;101106.00;;;4.70
19282;BMP180;9774;52.034;5.342;2022-11-20T02:10:05;101107.00;;;4.60
19282;BMP180;9774;52.034;5.342;2022-11-20T02:12:33;101099.00;;;4.60
19282;BMP180;9774;52.034;5.342;2022-11-20T02:15:19;101091.00;;;4.60
19282;BMP180;9774;52.034;5.342;2022-11-20T02:17:46;101085.00;;;4.60
19282;BMP180;9774;52.034;5.342;2022-11-20T02:20:14;101084.00;;;4.60
19282;BMP180;9774;52.034;5.342;2022-11-20T02:22:48;101085.00;;;4.50
19282;BMP180;9774;52.034;5.342;2022-11-20T02:25:20;101083.00;;;4.60
19282;BMP180;9774;52.034;5.342;2022-11-20T02:27:48;101074.00;;;4.60
19282;BMP180;9774;52.034;5.342;2022-11-20T02:30:16;101073.00;;;4.60
19282;BMP180;9774;52.034;5.342;2022-11-20T02:32:43;101062.00;;;4.60
19282;BMP180;9774;52.034;5.342;2022-11-20T02:35:43;101065.00;;;4.40
19282;BMP180;9774;52.034;5.342;2022-11-20T02:38:13;101076.00;;;4.50
19282;BMP180;9774;52.034;5.342;2022-11-20T02:40:42;101069.00;;;4.50
19282;BMP180;9774;52.034;5.342;2022-11-20T02:43:10;101064.00;;;4.50
19282;BMP180;9774;52.034;5.342;2022-11-20T02:45:37;101068.00;;;4.50
19282;BMP180;9774;52.034;5.342;2022-11-20T02:48:06;101076.00;;;4.50
19282;BMP180;9774;52.034;5.342;2022-11-20T02:50:37;101076.00;;;4.40
19282;BMP180;9774;52.034;5.342;2022-11-20T02:53:05;101090.00;;;4.40
19282;BMP180;9774;52.034;5.342;2022-11-20T02:55:32;101087.00;;;4.40
19282;BMP180;9774;52.034;5.342;2022-11-20T02:58:01;101072.00;;;4.40
19282;BMP180;9774;52.034;5.342;2022-11-20T03:00:28;101075.00;;;4.40
19282;BMP180;9774;52.034;5.342;2022-11-20T03:02:56;101075.00;;;4.40
19282;BMP180;9774;52.034;5.342;2022-11-20T03:05:23;101084.00;;;4.40
19282;BMP180;9774;52.034;5.342;2022-11-20T03:07:51;101071.00;;;4.40
19282;BMP180;9774;52.034;5.342;2022-11-20T03:10:18;101067.00;;;4.30
19282;BMP180;9774;52.034;5.342;2022-11-20T03:12:45;101066.00;;;4.30
19282;BMP180;9774;52.034;5.342;2022-11-20T03:15:14;101060.00;;;4.30
19282;BMP180;9774;52.034;5.342;2022-11-20T03:17:41;101069.00;;;4.30
19282;BMP180;9774;52.034;5.342;2022-11-20T03:20:09;101057.00;;;4.30
19282;BMP180;9774;52.034;5.342;2022-11-20T03:22:37;101055.00;;;4.30
19282;BMP180;9774;52.034;5.342;2022-11-20T03:25:05;101050.00;;;4.20
19282;BMP180;9774;52.034;5.342;2022-11-20T03:27:33;101047.00;;;4.20
19282;BMP180;9774;52.034;5.342;2022-11-20T03:30:01;101048.00;;;4.20
19282;BMP180;9774;52.034;5.342;2022-11-20T03:32:29;101051.00;;;4.20
19282;BMP180;9774;52.034;5.342;2022-11-20T03:34:57;101054.00;;;4.20
19282;BMP180;9774;52.034;5.342;2022-11-20T03:37:24;101053.00;;;4.10
19282;BMP180;9774;52.034;5.342;2022-11-20T03:39:51;101055.00;;;4.10
19282;BMP180;9774;52.034;5.342;2022-11-20T03:42:18;101050.00;;;4.10
19282;BMP180;9774;52.034;5.342;2022-11-20T03:45:00;101047.00;;;4.10
19282;BMP180;9774;52.034;5.342;2022-11-20T03:47:28;101040.00;;;4.00
19282;BMP180;9774;52.034;5.342;2022-11-20T03:49:55;101042.00;;;4.00
19282;BMP180;9774;52.034;5.342;2022-11-20T03:52:23;101035.00;;;4.00
19282;BMP180;9774;52.034;5.342;2022-11-20T03:54:50;101030.00;;;4.00
19282;BMP180;9774;52.034;5.342;2022-11-20T03:57:17;101034.00;;;4.00
19282;BMP180;9774;52.034;5.342;2022-11-20T03:59:44;101021.00;;;4.00
19282;BMP180;9774;52.034;5.342;2022-11-20T04:02:12;101022.00;;;4.00
19282;BMP180;9774;52.034;5.342;2022-11-20T04:04:40;101023.00;;;3.90
19282;BMP180;9774;52.034;5.342;2022-11-20T04:07:08;101026.00;;;3.90
19282;BMP180;9774;52.034;5.342;2022-11-20T04:09:35;101023.00;;;3.90
19282;BMP180;9774;52.034;5.342;2022-11-20T04:12:02;101017.00;;;3.90
19282;BMP180;9774;52.034;5.342;2022-11-20T04:14:30;101016.00;;;3.90
19282;BMP180;9774;52.034;5.342;2022-11-20T04:16:57;101018.00;;;3.90
19282;BMP180;9774;52.034;5.342;2022-11-20T04:19:24;101015.00;;;3.90
19282;BMP180;9774;52.034;5.342;2022-11-20T04:21:53;101011.00;;;3.80
19282;BMP180;9774;52.034;5.342;2022-11-20T04:24:20;101004.00;;;3.80
19282;BMP180;9774;52.034;5.342;2022-11-20T04:26:47;101010.00;;;3.80
19282;BMP180;9774;52.034;5.342;2022-11-20T04:29:14;100998.00;;;3.80
19282;BMP180;9774;52.034;5.342;2022-11-20T04:31:42;101002.00;;;3.80
19282;BMP180;9774;52.034;5.342;2022-11-20T04:34:12;101001.00;;;3.70
19282;BMP180;9774;52.034;5.342;2022-11-20T04:36:39;101003.00;;;3.80
19282;BMP180;9774;52.034;5.342;2022-11-20T04:39:12;101000.00;;;3.70
19282;BMP180;9774;52.034;5.342;2022-11-20T04:41:40;100994.00;;;3.70
19282;BMP180;9774;52.034;5.342;2022-11-20T04:44:07;100990.00;;;3.70
19282;BMP180;9774;52.034;5.342;2022-11-20T04:46:37;100996.00;;;3.70
19282;BMP180;9774;52.034;5.342;2022-11-20T04:49:05;100984.00;;;3.70
19282;BMP180;9774;52.034;5.342;2022-11-20T04:51:32;100997.00;;;3.70
19282;BMP180;9774;52.034;5.342;2022-11-20T04:54:00;100998.00;;;3.70
19282;BMP180;9774;52.034;5.342;2022-11-20T04:56:28;100991.00;;;3.70
19282;BMP180;9774;52.034;5.342;2022-11-20T04:58:59;100989.00;;;3.70
19282;BMP180;9774;52.034;5.342;2022-11-20T05:01:26;100989.00;;;3.70
19282;BMP180;9774;52.034;5.342;2022-11-20T05:03:54;100984.00;;;3.60
19282;BMP180;9774;52.034;5.342;2022-11-20T05:06:21;100980.00;;;3.60
19282;BMP180;9774;52.034;5.342;2022-11-20T05:08:49;100973.00;;;3.60
19282;BMP180;9774;52.034;5.342;2022-11-20T05:11:18;100970.00;;;3.60
19282;BMP180;9774;52.034;5.342;2022-11-20T05:13:47;100970.00;;;3.60
19282;BMP180;9774;52.034;5.342;2022-11-20T05:16:16;100968.00;;;3.60
19282;BMP180;9774;52.034;5.342;2022-11-20T05:18:44;100963.00;;;3.60
19282;BMP180;9774;52.034;5.342;2022-11-20T05:21:13;100958.00;;;3.60
19282;BMP180;9774;52.034;5.342;2022-11-20T05:23:41;100958.00;;;3.60
19282;BMP180;9774;52.034;5.342;2022-11-20T05:26:13;100958.00;;;3.50
19282;BMP180;9774;52.034;5.342;2022-11-20T05:28:40;100958.00;;;3.60
19282;BMP180;9774;52.034;5.342;2022-11-20T05:31:10;100950.00;;;3.50
19282;BMP180;9774;52.034;5.342;2022-11-20T05:33:40;100948.00;;;3.50
19282;BMP180;9774;52.034;5.342;2022-11-20T05:36:08;100953.00;;;3.50
19282;BMP180;9774;52.034;5.342;2022-11-20T05:38:36;100955.00;;;3.50
19282;BMP180;9774;52.034;5.342;2022-11-20T05:41:05;100953.00;;;3.50
19282;BMP180;9774;52.034;5.342;2022-11-20T05:43:33;100949.00;;;3.50
19282;BMP180;9774;52.034;5.342;2022-11-20T05:46:01;100951.00;;;3.40
19282;BMP180;9774;52.034;5.342;2022-11-20T05:48:30;100961.00;;;3.40
19282;BMP180;9774;52.034;5.342;2022-11-20T05:50:57;100958.00;;;3.40
19282;BMP180;9774;52.034;5.342;2022-11-20T05:53:25;100970.00;;;3.40
19282;BMP180;9774;52.034;5.342;2022-11-20T05:55:59;100976.00;;;3.40
19282;BMP180;9774;52.034;5.342;2022-11-20T05:58:26;100980.00;;;3.40
19282;BMP180;9774;52.034;5.342;2022-11-20T06:00:54;100983.00;;;3.40
19282;BMP180;9774;52.034;5.342;2022-11-20T06:03:21;100981.00;;;3.40
19282;BMP180;9774;52.034;5.342;2022-11-20T06:05:50;100992.00;;;3.40
19282;BMP180;9774;52.034;5.342;2022-11-20T06:08:17;100988.00;;;3.40
19282;BMP180;9774;52.034;5.342;2022-11-20T06:10:44;100996.00;;;3.30
19282;BMP180;9774;52.034;5.342;2022-11-20T06:13:11;100987.00;;;3.30
19282;BMP180;9774;52.034;5.342;2022-11-20T06:15:39;100990.00;;;3.30
19282;BMP180;9774;52.034;5.342;2022-11-20T06:18:06;100998.00;;;3.40
19282;BMP180;9774;52.034;5.342;2022-11-20T06:20:33;100989.00;;;3.40
19282;BMP180;9774;52.034;5.342;2022-11-20T06:23:02;100988.00;;;3.40
19282;BMP180;9774;52.034;5.342;2022-11-20T06:25:29;100986.00;;;3.40
19282;BMP180;9774;52.034;5.342;2022-11-20T06:27:56;100985.00;;;3.40
19282;BMP180;9774;52.034;5.342;2022-11-20T06:30:23;100982.00;;;3.40
19282;BMP180;9774;52.034;5.342;2022-11-20T06:32:51;100980.00;;;3.40
19282;BMP180;9774;52.034;5.342;2022-11-20T06:35:18;100977.00;;;3.40
19282;BMP180;9774;52.034;5.342;2022-11-20T06:37:45;100985.00;;;3.40
19282;BMP180;9774;52.034;5.342;2022-11-20T06:40:16;100979.00;;;3.40
19282;BMP180;9774;52.034;5.342;2022-11-20T06:42:44;100977.00;;;3.40
19282;BMP180;9774;52.034;5.342;2022-11-20T06:45:11;100993.00;;;3.50
19282;BMP180;9774;52.034;5.342;2022-11-20T06:47:38;100988.00;;;3.50
19282;BMP180;9774;52.034;5.342;2022-11-20T06:50:06;100989.00;;;3.40
19282;BMP180;9774;52.034;5.342;2022-11-20T06:52:34;100991.00;;;3.50
19282;BMP180;9774;52.034;5.342;2022-11-20T06:55:01;100985.00;;;3.50
19282;BMP180;9774;52.034;5.342;2022-11-20T06:57:30;100977.00;;;3.40
19282;BMP180;9774;52.034;5.342;2022-11-20T06:59:57;100971.00;;;3.50
19282;BMP180;9774;52.034;5.342;2022-11-20T07:02:24;100973.00;;;3.50
19282;BMP180;9774;52.034;5.342;2022-11-20T07:04:51;100970.00;;;3.50
19282;BMP180;9774;52.034;5.342;2022-11-20T07:07:19;100959.00;;;3.50
19282;BMP180;9774;52.034;5.342;2022-11-20T07:09:46;100960.00;;;3.50
19282;BMP180;9774;52.034;5.342;2022-11-20T07:12:13;100956.00;;;3.50
19282;BMP180;9774;52.034;5.342;2022-11-20T07:14:42;100968.00;;;3.50
19282;BMP180;9774;52.034;5.342;2022-11-20T07:17:09;100962.00;;;3.50
19282;BMP180;9774;52.034;5.342;2022-11-20T07:19:36;100960.00;;;3.60
19282;BMP180;9774;52.034;5.342;2022-11-20T07:22:04;100965.00;;;3.60
19282;BMP180;9774;52.034;5.342;2022-11-20T07:24:31;100957.00;;;3.60
19282;BMP180;9774;52.034;5.342;2022-11-20T07:26:58;100957.00;;;3.60
19282;BMP180;9774;52.034;5.342;2022-11-20T07:29:25;100949.00;;;3.60
19282;BMP180;9774;52.034;5.342;2022-11-20T07:31:54;100944.00;;;3.70
19282;BMP180;9774;52.034;5.342;2022-11-20T07:34:22;100949.00;;;3.70
19282;BMP180;9774;52.034;5.342;2022-11-20T07:36:50;100951.00;;;3.70
19282;BMP180;9774;52.034;5.342;2022-11-20T07:39:17;100950.00;;;3.70
19282;BMP180;9774;52.034;5.342;2022-11-20T07:41:44;100953.00;;;3.80
19282;BMP180;9774;52.034;5.342;2022-11-20T07:44:11;100953.00;;;3.80
19282;BMP180;9774;52.034;5.342;2022-11-20T07:46:39;100959.00;;;3.90
19282;BMP180;9774;52.034;5.342;2022-11-20T07:49:07;100960.00;;;3.90
19282;BMP180;9774;52.034;5.342;2022-11-20T07:51:34;100964.00;;;4.00
19282;BMP180;9774;52.034;5.342;2022-11-20T07:54:02;100963.00;;;4.00
19282;BMP180;9774;52.034;5.342;2022-11-20T07:56:29;100973.00;;;4.10
19282;BMP180;9774;52.034;5.342;2022-11-20T07:58:56;100972.00;;;4.20
19282;BMP180;9774;52.034;5.342;2022-11-20T08:01:24;100962.00;;;4.30
19282;BMP180;9774;52.034;5.342;2022-11-20T08:03:51;100951.00;;;4.30
19282;BMP180;9774;52.034;5.342;2022-11-20T08:06:19;100945.00;;;4.40
19282;BMP180;9774;52.034;5.342;2022-11-20T08:08:47;100952.00;;;4.50
19282;BMP180;9774;52.034;5.342;2022-11-20T08:11:14;100951.00;;;4.60
19282;BMP180;9774;52.034;5.342;2022-11-20T08:13:59;100937.00;;;4.60
19282;BMP180;9774;52.034;5.342;2022-11-20T08:16:38;100939.00;;;4.70
19282;BMP180;9774;52.034;5.342;2022-11-20T08:19:06;100939.00;;;4.80
19282;BMP180;9774;52.034;5.342;2022-11-20T08:21:35;100935.00;;;4.90
19282;BMP180;9774;52.034;5.342;2022-11-20T08:24:02;100939.00;;;5.00
19282;BMP180;9774;52.034;5.342;2022-11-20T08:26:30;100943.00;;;5.10
19282;BMP180;9774;52.034;5.342;2022-11-20T08:28:58;100945.00;;;5.20
19282;BMP180;9774;52.034;5.342;2022-11-20T08:31:26;100941.00;;;5.20
19282;BMP180;9774;52.034;5.342;2022-11-20T08:33:54;100951.00;;;5.30
19282;BMP180;9774;52.034;5.342;2022-11-20T08:36:22;100948.00;;;5.40
19282;BMP180;9774;52.034;5.342;2022-11-20T08:38:52;100950.00;;;5.50
19282;BMP180;9774;52.034;5.342;2022-11-20T08:41:20;100963.00;;;5.50
19282;BMP180;9774;52.034;5.342;2022-11-20T08:43:55;100961.00;;;5.60
19282;BMP180;9774;52.034;5.342;2022-11-20T08:46:24;100955.00;;;5.70
19282;BMP180;9774;52.034;5.342;2022-11-20T08:48:53;100957.00;;;5.70
19282;BMP180;9774;52.034;5.342;2022-11-20T08:51:20;100950.00;;;5.80
19282;BMP180;9774;52.034;5.342;2022-11-20T08:53:48;100954.00;;;5.90
19282;BMP180;9774;52.034;5.342;2022-11-20T08:56:17;100953.00;;;5.90
19282;BMP180;9774;52.034;5.342;2022-11-20T08:58:44;100951.00;;;6.00
19282;BMP180;9774;52.034;5.342;2022-11-20T09:01:12;100947.00;;;6.10
19282;BMP180;9774;52.034;5.342;2022-11-20T09:03:39;100948.00;;;6.10
19282;BMP180;9774;52.034;5.342;2022-11-20T09:06:08;100944.00;;;6.20
19282;BMP180;9774;52.034;5.342;2022-11-20T09:08:35;100946.00;;;6.20
19282;BMP180;9774;52.034;5.342;2022-11-20T09:11:04;100941.00;;;6.30
19282;BMP180;9774;52.034;5.342;2022-11-20T09:13:34;100933.00;;;6.30
19282;BMP180;9774;52.034;5.342;2022-11-20T09:16:04;100927.00;;;6.40
19282;BMP180;9774;52.034;5.342;2022-11-20T09:18:33;100921.00;;;6.50
19282;BMP180;9774;52.034;5.342;2022-11-20T09:21:06;100923.00;;;6.60
19282;BMP180;9774;52.034;5.342;2022-11-20T09:23:35;100915.00;;;6.60
19282;BMP180;9774;52.034;5.342;2022-11-20T09:26:03;100919.00;;;6.70
19282;BMP180;9774;52.034;5.342;2022-11-20T09:28:32;100919.00;;;6.80
19282;BMP180;9774;52.034;5.342;2022-11-20T09:31:00;100910.00;;;6.80
19282;BMP180;9774;52.034;5.342;2022-11-20T09:33:27;100905.00;;;6.90
19282;BMP180;9774;52.034;5.342;2022-11-20T09:35:54;100906.00;;;7.00
19282;BMP180;9774;52.034;5.342;2022-11-20T09:38:22;100902.00;;;7.00
19282;BMP180;9774;52.034;5.342;2022-11-20T09:40:54;100901.00;;;7.00
19282;BMP180;9774;52.034;5.342;2022-11-20T09:43:32;100896.00;;;7.10
19282;BMP180;9774;52.034;5.342;2022-11-20T09:46:08;100895.00;;;7.20
19282;BMP180;9774;52.034;5.342;2022-11-20T09:48:52;100898.00;;;7.20
19282;BMP180;9774;52.034;5.342;2022-11-20T09:51:34;100895.00;;;7.30
19282;BMP180;9774;52.034;5.342;2022-11-20T09:54:13;100895.00;;;7.30
19282;BMP180;9774;52.034;5.342;2022-11-20T09:56:45;100892.00;;;7.40
19282;BMP180;9774;52.034;5.342;2022-11-20T09:59:27;100887.00;;;7.50
19282;BMP180;9774;52.034;5.342;2022-11-20T10:01:56;100882.00;;;7.60
19282;BMP180;9774;52.034;5.342;2022-11-20T10:04:24;100881.00;;;7.60
19282;BMP180;9774;52.034;5.342;2022-11-20T10:07:00;100874.00;;;7.60
19282;BMP180;9774;52.034;5.342;2022-11-20T10:09:31;100875.00;;;7.70
19282;BMP180;9774;52.034;5.342;2022-11-20T10:12:11;100891.00;;;7.70
19282;BMP180;9774;52.034;5.342;2022-11-20T10:15:03;100881.00;;;7.80
19282;BMP180;9774;52.034;5.342;2022-11-20T10:17:53;100869.00;;;7.80
19282;BMP180;9774;52.034;5.342;2022-11-20T10:20:28;100848.00;;;7.80
19282;BMP180;9774;52.034;5.342;2022-11-20T10:23:23;100854.00;;;7.80
19282;BMP180;9774;52.034;5.342;2022-11-20T10:25:59;100854.00;;;7.90
19282;BMP180;9774;52.034;5.342;2022-11-20T10:28:40;100849.00;;;8.00
19282;BMP180;9774;52.034;5.342;2022-11-20T10:31:17;100846.00;;;8.00
19282;BMP180;9774;52.034;5.342;2022-11-20T10:33:51;100826.00;;;8.10
19282;BMP180;9774;52.034;5.342;2022-11-20T10:36:22;100829.00;;;8.20
19282;BMP180;9774;52.034;5.342;2022-11-20T10:38:54;100815.00;;;8.20
19282;BMP180;9774;52.034;5.342;2022-11-20T10:41:26;100815.00;;;8.20
19282;BMP180;9774;52.034;5.342;2022-11-20T10:44:03;100814.00;;;8.30
19282;BMP180;9774;52.034;5.342;2022-11-20T10:46:37;100801.00;;;8.30
19282;BMP180;9774;52.034;5.342;2022-11-20T10:49:12;100796.00;;;8.40
19282;BMP180;9774;52.034;5.342;2022-11-20T10:51:49;100789.00;;;8.50
19282;BMP180;9774;52.034;5.342;2022-11-20T10:54:25;100787.00;;;8.60
19282;BMP180;9774;52.034;5.342;2022-11-20T10:56:59;100778.00;;;8.60
19282;BMP180;9774;52.034;5.342;2022-11-20T10:59:46;100771.00;;;8.70
19282;BMP180;9774;52.034;5.342;2022-11-20T11:02:20;100772.00;;;8.80
19282;BMP180;9774;52.034;5.342;2022-11-20T11:04:49;100767.00;;;8.90
19282;BMP180;9774;52.034;5.342;2022-11-20T11:07:21;100768.00;;;8.90
19282;BMP180;9774;52.034;5.342;2022-11-20T11:09:51;100769.00;;;9.00
19282;BMP180;9774;52.034;5.342;2022-11-20T11:12:19;100760.00;;;9.00
19282;BMP180;9774;52.034;5.342;2022-11-20T11:14:49;100756.00;;;9.10
19282;BMP180;9774;52.034;5.342;2022-11-20T11:17:27;100738.00;;;9.00
19282;BMP180;9774;52.034;5.342;2022-11-20T11:20:06;100735.00;;;9.10
19282;BMP180;9774;52.034;5.342;2022-11-20T11:22:39;100729.00;;;9.20
19282;BMP180;9774;52.034;5.342;2022-11-20T11:25:20;100732.00;;;9.20
19282;BMP180;9774;52.034;5.342;2022-11-20T11:27:48;100721.00;;;9.30
19282;BMP180;9774;52.034;5.342;2022-11-20T11:30:18;100724.00;;;9.30
19282;BMP180;9774;52.034;5.342;2022-11-20T11:32:47;100726.00;;;9.30
19282;BMP180;9774;52.034;5.342;2022-11-20T11:35:26;100724.00;;;9.30
19282;BMP180;9774;52.034;5.342;2022-11-20T11:38:01;100712.00;;;9.30
19282;BMP180;9774;52.034;5.342;2022-11-20T11:40:31;100713.00;;;9.40
19282;BMP180;9774;52.034;5.342;2022-11-20T11:43:01;100712.00;;;9.40
19282;BMP180;9774;52.034;5.342;2022-11-20T11:45:29;100708.00;;;9.40
19282;BMP180;9774;52.034;5.342;2022-11-20T11:48:00;100712.00;;;9.40
19282;BMP180;9774;52.034;5.342;2022-11-20T11:50:29;100708.00;;;9.50
19282;BMP180;9774;52.034;5.342;2022-11-20T11:53:03;100694.00;;;9.50
19282;BMP180;9774;52.034;5.342;2022-11-20T11:55:36;100681.00;;;9.50
19282;BMP180;9774;52.034;5.342;2022-11-20T11:58:17;100669.00;;;9.50
19282;BMP180;9774;52.034;5.342;2022-11-20T12:00:51;100677.00;;;9.50
19282;BMP180;9774;52.034;5.342;2022-11-20T12:03:27;100672.00;;;9.60
19282;BMP180;9774;52.034;5.342;2022-11-20T12:05:58;100663.00;;;9.60
19282;BMP180;9774;52.034;5.342;2022-11-20T12:08:31;100668.00;;;9.60
19282;BMP180;9774;52.034;5.342;2022-11-20T12:11:04;100663.00;;;9.60
19282;BMP180;9774;52.034;5.342;2022-11-20T12:13:42;100659.00;;;9.70
19282;BMP180;9774;52.034;5.342;2022-11-20T12:16:13;100654.00;;;9.70
19282;BMP180;9774;52.034;5.342;2022-11-20T12:18:42;100639.00;;;9.70
19282;BMP180;9774;52.034;5.342;2022-11-20T12:21:19;100643.00;;;9.60
19282;BMP180;9774;52.034;5.342;2022-11-20T12:24:13;100644.00;;;9.60
19282;BMP180;9774;52.034;5.342;2022-11-20T12:26:54;100634.00;;;9.60
19282;BMP180;9774;52.034;5.342;2022-11-20T12:29:33;100634.00;;;9.70
19282;BMP180;9774;52.034;5.342;2022-11-20T12:32:28;100628.00;;;9.60
19282;BMP180;9774;52.034;5.342;2022-11-20T12:35:07;100620.00;;;9.70
19282;BMP180;9774;52.034;5.342;2022-11-20T12:37:45;100615.00;;;9.70
19282;BMP180;9774;52.034;5.342;2022-11-20T12:40:28;100597.00;;;9.70
19282;BMP180;9774;52.034;5.342;2022-11-20T12:43:05;100593.00;;;9.70
19282;BMP180;9774;52.034;5.342;2022-11-20T12:46:17;100579.00;;;9.60
19282;BMP180;9774;52.034;5.342;2022-11-20T12:52:02;100575.00;;;9.70
19282;BMP180;9774;52.034;5.342;2022-11-20T12:54:53;100578.00;;;9.70
19282;BMP180;9774;52.034;5.342;2022-11-20T12:57:29;100570.00;;;9.70
19282;BMP180;9774;52.034;5.342;2022-11-20T13:00:11;100563.00;;;9.70
19282;BMP180;9774;52.034;5.342;2022-11-20T13:02:58;100572.00;;;9.70
19282;BMP180;9774;52.034;5.342;2022-11-20T13:05:33;100565.00;;;9.80
19282;BMP180;9774;52.034;5.342;2022-11-20T13:08:11;100554.00;;;9.80
19282;BMP180;9774;52.034;5.342;2022-11-20T13:10:45;100553.00;;;9.80
19282;BMP180;9774;52.034;5.342;2022-11-20T13:13:20;100550.00;;;9.80
19282;BMP180;9774;52.034;5.342;2022-11-20T13:15:54;100543.00;;;9.80
19282;BMP180;9774;52.034;5.342;2022-11-20T13:18:23;100533.00;;;9.80
19282;BMP180;9774;52.034;5.342;2022-11-20T13:20:50;100531.00;;;9.90
19282;BMP180;9774;52.034;5.342;2022-11-20T13:23:26;100523.00;;;9.80
19282;BMP180;9774;52.034;5.342;2022-11-20T13:26:05;100540.00;;;9.80
19282;BMP180;9774;52.034;5.342;2022-11-20T13:28:33;100529.00;;;9.90
19282;BMP180;9774;52.034;5.342;2022-11-20T13:31:01;100516.00;;;9.90
19282;BMP180;9774;52.034;5.342;2022-11-20T13:33:31;100503.00;;;9.90
19282;BMP180;9774;52.034;5.342;2022-11-20T13:36:01;100495.00;;;9.90
19282;BMP180;9774;52.034;5.342;2022-11-20T13:38:43;100502.00;;;9.80
19282;BMP180;9774;52.034;5.342;2022-11-20T13:41:11;100492.00;;;9.90
19282;BMP180;9774;52.034;5.342;2022-11-20T13:44:10;100496.00;;;9.80
19282;BMP180;9774;52.034;5.342;2022-11-20T13:46:41;100490.00;;;9.90
19282;BMP180;9774;52.034;5.342;2022-11-20T13:49:16;100493.00;;;9.90
19282;BMP180;9774;52.034;5.342;2022-11-20T13:51:45;100495.00;;;9.90
19282;BMP180;9774;52.034;5.342;2022-11-20T13:54:50;100497.00;;;9.80
19282;BMP180;9774;52.034;5.342;2022-11-20T13:57:47;100501.00;;;9.80
19282;BMP180;9774;52.034;5.342;2022-11-20T14:00:18;100480.00;;;9.90
19282;BMP180;9774;52.034;5.342;2022-11-20T14:03:00;100480.00;;;9.90
19282;BMP180;9774;52.034;5.342;2022-11-20T14:05:28;100481.00;;;9.90
19282;BMP180;9774;52.034;5.342;2022-11-20T14:07:58;100467.00;;;9.90
19282;BMP180;9774;52.034;5.342;2022-11-20T14:10:29;100429.00;;;9.90
19282;BMP180;9774;52.034;5.342;2022-11-20T14:12:57;100426.00;;;9.90
19282;BMP180;9774;52.034;5.342;2022-11-20T14:15:29;100437.00;;;9.90
19282;BMP180;9774;52.034;5.342;2022-11-20T14:17:57;100449.00;;;9.90
19282;BMP180;9774;52.034;5.342;2022-11-20T14:20:27;100442.00;;;9.90
19282;BMP180;9774;52.034;5.342;2022-11-20T14:22:55;100434.00;;;9.90
19282;BMP180;9774;52.034;5.342;2022-11-20T14:25:24;100425.00;;;9.90
19282;BMP180;9774;52.034;5.342;2022-11-20T14:27:56;100423.00;;;9.90
19282;BMP180;9774;52.034;5.342;2022-11-20T14:30:25;100416.00;;;10.00
19282;BMP180;9774;52.034;5.342;2022-11-20T14:32:55;100414.00;;;10.00
19282;BMP180;9774;52.034;5.342;2022-11-20T14:35:25;100416.00;;;10.00
19282;BMP180;9774;52.034;5.342;2022-11-20T14:37:54;100406.00;;;10.00
19282;BMP180;9774;52.034;5.342;2022-11-20T14:40:27;100411.00;;;10.00
19282;BMP180;9774;52.034;5.342;2022-11-20T14:42:57;100402.00;;;10.00
19282;BMP180;9774;52.034;5.342;2022-11-20T14:45:26;100398.00;;;10.10